Time;durP1;ratioP1;P1;durP2;ratioP2;P2;SDS_P1;SDS_P2;PMS_P1;PMS_P2;Temp;Humidity;BMP_temperature;BMP_pressure;BME280_temperature;BME280_humidity;BME280_pressure;Samples;Min_cycle;Max_cycle;Signal;HPM_P1;HPM_P2
2022/07/02 00:00:38;;;;;;;2.43;2.23;;;;;14.00;101642.00;;;;4943974;28;20714;-69
2022/07/02 00:03:31;;;;;;;3.93;2.37;;;;;14.00;101648.00;;;;4935926;28;20231;-69
2022/07/02 00:06:20;;;;;;;4.70;2.70;;;;;14.00;101649.00;;;;4941277;28;20244;-69
2022/07/02 00:09:06;;;;;;;2.70;2.50;;;;;13.90;101654.00;;;;4945943;28;20660;-69
2022/07/02 00:11:57;;;;;;;3.73;2.27;;;;;14.10;101647.00;;;;4947903;28;20247;-68
2022/07/02 00:14:43;;;;;;;2.77;2.47;;;;;14.00;101642.00;;;;4942042;28;20292;-68
2022/07/02 00:17:29;;;;;;;4.27;2.40;;;;;14.00;101640.00;;;;4944384;28;20364;-69
2022/07/02 00:20:17;;;;;;;2.53;2.33;;;;;13.90;101639.00;;;;4942940;28;20236;-68
2022/07/02 00:23:03;;;;;;;3.53;2.40;;;;;13.90;101623.00;;;;4943029;28;20243;-68
2022/07/02 00:25:54;;;;;;;2.73;2.33;;;;;14.00;101628.00;;;;4941074;28;20229;-71
2022/07/02 00:28:43;;;;;;;4.17;2.70;;;;;13.80;101634.00;;;;4940677;28;20264;-70
2022/07/02 00:31:29;;;;;;;3.20;2.50;;;;;13.80;101632.00;;;;4942539;28;20278;-68
2022/07/02 00:34:17;;;;;;;3.23;2.50;;;;;13.80;101639.00;;;;4937140;28;20240;-66
2022/07/02 00:37:06;;;;;;;5.33;2.70;;;;;13.70;101636.00;;;;4945176;28;20252;-67
2022/07/02 00:39:53;;;;;;;5.90;2.50;;;;;13.60;101643.00;;;;4944543;28;20315;-67
2022/07/02 00:42:42;;;;;;;3.00;2.27;;;;;13.70;101637.00;;;;4940988;28;20301;-69
2022/07/02 00:45:29;;;;;;;3.90;2.80;;;;;13.60;101646.00;;;;4945557;28;20240;-69
2022/07/02 00:48:16;;;;;;;3.43;2.60;;;;;13.50;101644.00;;;;4937547;28;20313;-68
2022/07/02 00:51:02;;;;;;;2.57;2.37;;;;;13.50;101640.00;;;;4943472;28;20303;-68
2022/07/02 00:53:50;;;;;;;4.20;2.33;;;;;13.60;101644.00;;;;4944067;28;20232;-65
2022/07/02 00:56:36;;;;;;;2.53;2.33;;;;;13.50;101644.00;;;;4949079;28;20235;-68
2022/07/02 00:59:24;;;;;;;3.90;2.53;;;;;13.60;101629.00;;;;4950259;28;20252;-68
2022/07/02 01:02:10;;;;;;;4.57;2.80;;;;;13.60;101629.00;;;;4948594;28;20236;-68
2022/07/02 01:04:59;;;;;;;2.50;2.30;;;;;13.40;101624.00;;;;4949827;28;20611;-68
2022/07/02 01:10:16;;;;;;;3.73;2.43;;;;;13.40;101625.00;;;;4948449;28;20233;-68
2022/07/02 01:10:54;;;;;;;4.03;2.67;;;;;13.30;101609.00;;;;4948351;28;20311;-69
2022/07/02 01:13:41;;;;;;;3.00;2.70;;;;;13.40;101612.00;;;;4936005;28;20240;-67
2022/07/02 01:16:27;;;;;;;3.43;2.50;;;;;13.40;101607.00;;;;4939703;28;20327;-68
2022/07/02 01:19:18;;;;;;;3.73;2.73;;;;;13.40;101606.00;;;;4934378;28;20653;-68
2022/07/02 01:22:18;;;;;;;5.97;2.57;;;;;13.40;101605.00;;;;4937053;28;20373;-67
2022/07/02 01:25:06;;;;;;;3.07;2.77;;;;;13.20;101614.00;;;;4950029;28;20296;-68
2022/07/02 01:27:52;;;;;;;2.50;2.30;;;;;13.20;101606.00;;;;4945759;28;20307;-68
2022/07/02 01:30:39;;;;;;;2.87;2.57;;;;;13.30;101618.00;;;;4949019;28;20227;-67
2022/07/02 01:33:25;;;;;;;4.63;3.03;;;;;13.20;101614.00;;;;4948639;28;20728;-68
2022/07/02 01:36:11;;;;;;;2.93;2.63;;;;;13.20;101618.00;;;;4948095;28;20319;-68
2022/07/02 01:38:58;;;;;;;2.97;2.70;;;;;13.20;101624.00;;;;4946930;28;20803;-67
2022/07/02 01:41:45;;;;;;;2.57;2.37;;;;;13.20;101624.00;;;;4942530;28;20372;-68
2022/07/02 01:44:31;;;;;;;3.63;2.60;;;;;13.10;101626.00;;;;4946688;28;20228;-67
2022/07/02 01:47:18;;;;;;;3.80;2.90;;;;;13.20;101622.00;;;;4942514;28;20231;-68
2022/07/02 01:50:05;;;;;;;3.90;2.97;;;;;13.10;101621.00;;;;4947529;28;20279;-68
2022/07/02 01:52:51;;;;;;;3.73;2.77;;;;;13.00;101613.00;;;;4938648;28;20235;-67
2022/07/02 01:55:39;;;;;;;4.20;2.87;;;;;13.10;101622.00;;;;4946623;28;20313;-67
2022/07/02 01:58:25;;;;;;;3.10;2.80;;;;;13.00;101616.00;;;;4944795;28;20240;-68
2022/07/02 02:01:11;;;;;;;5.07;2.63;;;;;13.00;101601.00;;;;4943034;28;20245;-67
2022/07/02 02:03:58;;;;;;;2.90;2.60;;;;;13.00;101618.00;;;;4946208;28;20235;-68
2022/07/02 02:06:44;;;;;;;3.10;2.80;;;;;13.00;101607.00;;;;4937418;28;20761;-66
2022/07/02 02:09:30;;;;;;;3.83;3.17;;;;;13.00;101592.00;;;;4948522;28;20248;-67
2022/07/02 02:12:18;;;;;;;2.97;2.70;;;;;12.90;101602.00;;;;4944047;28;20232;-69
2022/07/02 02:15:06;;;;;;;3.20;2.90;;;;;13.10;101607.00;;;;4945034;28;20247;-68
2022/07/02 02:17:52;;;;;;;5.07;3.00;;;;;12.90;101608.00;;;;4946234;28;20243;-69
2022/07/02 02:20:39;;;;;;;3.20;2.90;;;;;13.00;101613.00;;;;4941003;28;20223;-69
2022/07/02 02:23:25;;;;;;;3.57;3.17;;;;;13.00;101606.00;;;;4935516;28;20235;-68
2022/07/02 02:26:11;;;;;;;3.20;2.90;;;;;12.90;101604.00;;;;4947332;28;20276;-69
2022/07/02 02:28:59;;;;;;;4.57;3.47;;;;;12.90;101609.00;;;;4949012;28;20744;-69
2022/07/02 02:31:46;;;;;;;3.90;2.73;;;;;12.80;101601.00;;;;4948218;28;20653;-67
2022/07/02 02:34:32;;;;;;;3.27;2.93;;;;;12.80;101600.00;;;;4947179;28;20251;-69
2022/07/02 02:37:19;;;;;;;3.63;3.00;;;;;12.80;101612.00;;;;4946239;28;20236;-68
2022/07/02 02:40:07;;;;;;;3.77;3.10;;;;;12.70;101606.00;;;;4947964;28;20247;-68
2022/07/02 02:42:53;;;;;;;3.50;3.20;;;;;12.70;101603.00;;;;4942151;28;20910;-69
2022/07/02 02:45:41;;;;;;;3.70;3.00;;;;;12.80;101619.00;;;;4947795;28;20224;-68
2022/07/02 02:48:27;;;;;;;3.23;2.70;;;;;12.70;101605.00;;;;4947583;28;20239;-67
2022/07/02 02:51:15;;;;;;;4.63;3.40;;;;;12.80;101625.00;;;;4946880;28;20379;-68
2022/07/02 02:54:02;;;;;;;3.63;3.13;;;;;12.70;101622.00;;;;4936526;28;20478;-68
2022/07/02 02:56:48;;;;;;;4.90;2.97;;;;;12.80;101621.00;;;;4942492;28;20240;-67
2022/07/02 02:59:34;;;;;;;6.17;3.50;;;;;12.80;101617.00;;;;4940516;28;20324;-68
2022/07/02 03:02:22;;;;;;;3.70;2.97;;;;;12.70;101619.00;;;;4947055;28;20220;-68
2022/07/02 03:05:08;;;;;;;4.43;3.23;;;;;12.70;101625.00;;;;4947753;28;20235;-68
2022/07/02 03:07:54;;;;;;;4.57;3.10;;;;;12.70;101628.00;;;;4941424;28;20303;-68
2022/07/02 03:10:41;;;;;;;3.90;3.10;;;;;12.70;101634.00;;;;4945378;28;20320;-67
2022/07/02 03:13:27;;;;;;;6.47;3.13;;;;;12.70;101626.00;;;;4945025;28;20486;-68
2022/07/02 03:16:13;;;;;;;4.90;3.40;;;;;12.80;101632.00;;;;4944192;28;20295;-68
2022/07/02 03:19:01;;;;;;;3.40;3.10;;;;;12.70;101631.00;;;;4944494;28;20232;-68
2022/07/02 03:21:47;;;;;;;7.07;3.00;;;;;12.70;101636.00;;;;4947561;28;20608;-69
2022/07/02 03:24:33;;;;;;;3.80;2.90;;;;;12.70;101637.00;;;;4944391;28;20930;-68
2022/07/02 03:27:19;;;;;;;3.10;2.80;;;;;12.60;101642.00;;;;4942841;28;20231;-68
2022/07/02 03:30:08;;;;;;;3.27;2.80;;;;;12.70;101640.00;;;;4940985;28;20605;-69
2022/07/02 03:32:54;;;;;;;4.73;2.90;;;;;12.60;101643.00;;;;4946232;28;20841;-68
2022/07/02 03:35:41;;;;;;;3.07;2.77;;;;;12.70;101637.00;;;;4941254;28;20332;-68
2022/07/02 03:38:28;;;;;;;3.63;3.17;;;;;12.60;101629.00;;;;4942701;28;20232;-68
2022/07/02 03:41:15;;;;;;;4.97;2.80;;;;;12.70;101638.00;;;;4947537;28;20235;-68
2022/07/02 03:44:01;;;;;;;5.57;3.00;;;;;12.70;101627.00;;;;4942863;28;20228;-68
2022/07/02 03:46:47;;;;;;;4.87;2.67;;;;;12.80;101635.00;;;;4941101;28;20349;-70
2022/07/02 03:49:33;;;;;;;3.57;2.90;;;;;12.80;101636.00;;;;4946391;28;20232;-70
2022/07/02 03:52:21;;;;;;;8.63;3.30;;;;;12.70;101639.00;;;;4945043;28;20244;-71
2022/07/02 03:55:09;;;;;;;4.67;3.13;;;;;12.80;101639.00;;;;4944409;28;20231;-69
2022/07/02 03:57:55;;;;;;;4.37;3.17;;;;;12.70;101640.00;;;;4942097;28;20240;-70
2022/07/02 04:00:41;;;;;;;3.57;3.27;;;;;12.70;101641.00;;;;4942667;28;20251;-70
2022/07/02 04:03:28;;;;;;;3.87;3.20;;;;;12.80;101636.00;;;;4938501;28;20228;-68
2022/07/02 04:06:14;;;;;;;3.33;3.03;;;;;12.80;101631.00;;;;4942596;28;20594;-69
2022/07/02 04:09:02;;;;;;;3.00;2.70;;;;;12.90;101648.00;;;;4940847;28;20244;-69
2022/07/02 04:11:49;;;;;;;3.63;3.13;;;;;13.00;101639.00;;;;4942910;28;20306;-68
2022/07/02 04:14:35;;;;;;;4.50;2.93;;;;;12.90;101639.00;;;;4945679;28;20287;-69
2022/07/02 04:17:22;;;;;;;3.53;3.20;;;;;12.90;101632.00;;;;4943399;28;20254;-69
2022/07/02 04:20:09;;;;;;;4.60;3.20;;;;;12.90;101644.00;;;;4946615;28;20279;-70
2022/07/02 04:22:56;;;;;;;5.30;3.23;;;;;12.90;101636.00;;;;4937386;28;20231;-70
2022/07/02 04:25:43;;;;;;;5.10;3.33;;;;;13.10;101645.00;;;;4944854;28;20236;-69
2022/07/02 04:28:30;;;;;;;4.03;3.13;;;;;13.00;101639.00;;;;4943537;28;20348;-69
2022/07/02 04:31:16;;;;;;;3.93;3.10;;;;;13.00;101644.00;;;;4946511;28;20235;-69
2022/07/02 04:34:02;;;;;;;4.43;3.13;;;;;13.10;101648.00;;;;4939075;28;20232;-71
2022/07/02 04:36:49;;;;;;;5.63;3.10;;;;;13.20;101645.00;;;;4942358;28;20235;-69
2022/07/02 04:39:40;;;;;;;6.10;3.43;;;;;13.20;101641.00;;;;4945524;28;20236;-69
2022/07/02 04:42:27;;;;;;;3.57;2.97;;;;;13.20;101645.00;;;;4938067;28;20367;-70
2022/07/02 04:45:14;;;;;;;4.70;3.17;;;;;13.30;101644.00;;;;4942397;28;20251;-69
2022/07/02 04:48:00;;;;;;;4.60;3.43;;;;;13.50;101655.00;;;;4941076;28;20712;-69
2022/07/02 04:50:46;;;;;;;4.03;2.73;;;;;13.40;101665.00;;;;4939514;28;20740;-69
2022/07/02 04:53:32;;;;;;;3.20;2.90;;;;;13.50;101646.00;;;;4945720;28;20303;-69
2022/07/02 04:56:18;;;;;;;4.57;3.53;;;;;13.60;101643.00;;;;4939910;28;20285;-69
2022/07/02 04:59:06;;;;;;;4.03;3.20;;;;;13.60;101654.00;;;;4944891;28;20617;-69
2022/07/02 05:01:52;;;;;;;5.97;3.50;;;;;13.70;101648.00;;;;4944290;28;20247;-69
2022/07/02 05:04:39;;;;;;;3.57;3.23;;;;;13.70;101645.00;;;;4944555;28;20291;-68
2022/07/02 05:07:26;;;;;;;4.10;3.00;;;;;13.80;101645.00;;;;4943510;28;20251;-68
2022/07/02 05:10:16;;;;;;;4.03;3.17;;;;;13.80;101661.00;;;;4942636;28;20853;-68
2022/07/02 05:13:04;;;;;;;4.40;3.43;;;;;13.80;101658.00;;;;4939702;28;20234;-68
2022/07/02 05:15:51;;;;;;;3.90;3.20;;;;;14.00;101650.00;;;;4942262;28;20231;-68
2022/07/02 05:18:38;;;;;;;5.20;3.10;;;;;14.00;101645.00;;;;4945083;28;20328;-69
2022/07/02 05:21:24;;;;;;;4.03;3.47;;;;;14.10;101653.00;;;;4937321;28;20228;-68
2022/07/02 05:24:11;;;;;;;6.00;3.20;;;;;14.10;101645.00;;;;4942183;28;20220;-68
2022/07/02 05:26:57;;;;;;;4.40;3.10;;;;;14.30;101661.00;;;;4946107;28;20995;-68
2022/07/02 05:29:43;;;;;;;4.70;3.23;;;;;14.30;101658.00;;;;4944307;28;20360;-69
2022/07/02 05:32:35;;;;;;;4.83;2.97;;;;;14.40;101663.00;;;;4945953;28;20236;-68
2022/07/02 05:35:22;;;;;;;4.47;3.07;;;;;14.50;101660.00;;;;4940536;28;20227;-69
2022/07/02 05:38:08;;;;;;;3.17;2.87;;;;;14.60;101665.00;;;;4943986;28;20256;-69
2022/07/02 05:40:54;;;;;;;3.47;3.00;;;;;14.70;101665.00;;;;4940960;28;20295;-68
2022/07/02 05:43:41;;;;;;;3.23;2.93;;;;;14.80;101671.00;;;;4946677;28;20228;-68
2022/07/02 05:46:27;;;;;;;3.87;3.33;;;;;14.90;101668.00;;;;4944397;28;20330;-69
2022/07/02 05:49:15;;;;;;;5.70;3.03;;;;;15.00;101659.00;;;;4950513;28;20243;-69
2022/07/02 05:52:01;;;;;;;6.07;2.87;;;;;15.10;101661.00;;;;4947596;28;20347;-69
2022/07/02 05:54:48;;;;;;;5.47;2.93;;;;;15.20;101679.00;;;;4947857;28;20247;-68
2022/07/02 05:57:34;;;;;;;3.60;3.07;;;;;15.30;101668.00;;;;4948326;28;20864;-68
2022/07/02 06:00:20;;;;;;;3.50;2.63;;;;;15.40;101670.00;;;;4941584;28;20228;-68
2022/07/02 06:03:06;;;;;;;6.10;3.20;;;;;15.50;101674.00;;;;4944205;28;20319;-68
2022/07/02 06:08:58;;;;;;;5.13;3.30;;;;;15.80;101666.00;;;;4942279;28;20288;-67
2022/07/02 06:11:45;;;;;;;5.90;3.40;;;;;15.80;101665.00;;;;4948630;28;20272;-68
2022/07/02 06:14:31;;;;;;;3.13;2.80;;;;;16.00;101671.00;;;;4949260;28;20298;-68
2022/07/02 06:17:17;;;;;;;4.37;3.07;;;;;16.00;101673.00;;;;4944553;28;20241;-69
2022/07/02 06:20:04;;;;;;;5.43;3.30;;;;;16.20;101676.00;;;;4948774;28;20307;-70
2022/07/02 06:22:52;;;;;;;7.40;2.80;;;;;16.30;101675.00;;;;4944243;28;20783;-70
2022/07/02 06:25:38;;;;;;;4.93;2.77;;;;;16.50;101681.00;;;;4946301;28;20319;-70
2022/07/02 06:28:25;;;;;;;3.40;2.47;;;;;16.60;101686.00;;;;4941317;28;20351;-71
2022/07/02 06:31:11;;;;;;;3.57;2.63;;;;;16.60;101696.00;;;;4942536;28;20620;-70
2022/07/02 06:33:57;;;;;;;3.07;2.20;;;;;16.70;101689.00;;;;4945099;28;20239;-68
2022/07/02 06:36:43;;;;;;;4.27;2.53;;;;;16.70;101689.00;;;;4934134;28;20233;-68
2022/07/02 06:39:31;;;;;;;5.10;2.63;;;;;16.70;101709.00;;;;4945509;28;20235;-70
2022/07/02 06:42:22;;;;;;;3.30;2.30;;;;;16.80;101699.00;;;;4939056;28;20243;-70
2022/07/02 06:45:09;;;;;;;4.13;2.97;;;;;17.00;101696.00;;;;4944581;28;20233;-70
2022/07/02 06:47:55;;;;;;;4.00;2.33;;;;;17.00;101692.00;;;;4948797;28;20233;-70
2022/07/02 06:50:42;;;;;;;2.67;2.20;;;;;17.20;101691.00;;;;4939309;28;20248;-70
2022/07/02 06:53:28;;;;;;;3.87;2.30;;;;;17.40;101682.00;;;;4948227;28;20872;-71
2022/07/02 06:56:15;;;;;;;2.87;2.30;;;;;17.40;101684.00;;;;4946958;28;20396;-71
2022/07/02 06:59:02;;;;;;;3.47;2.40;;;;;17.50;101689.00;;;;4937822;28;20231;-70
2022/07/02 07:01:48;;;;;;;2.60;2.10;;;;;17.50;101694.00;;;;4946143;28;20251;-69
2022/07/02 07:04:54;;;;;;;3.77;2.83;;;;;17.60;101691.00;;;;4940372;28;20236;-69
2022/07/02 07:07:41;;;;;;;4.47;2.80;;;;;17.80;101689.00;;;;4947202;28;20360;-69
2022/07/02 07:10:27;;;;;;;3.60;2.30;;;;;18.10;101687.00;;;;4944570;28;20247;-69
2022/07/02 07:13:15;;;;;;;2.20;1.90;;;;;18.10;101696.00;;;;4942213;28;20913;-69
2022/07/02 07:16:01;;;;;;;2.00;1.80;;;;;18.20;101690.00;;;;4940052;28;20619;-70
2022/07/02 07:18:49;;;;;;;2.10;1.63;;;;;18.20;101686.00;;;;4946367;28;20224;-70
2022/07/02 07:21:37;;;;;;;2.80;1.90;;;;;18.40;101685.00;;;;4934340;28;20251;-69
2022/07/02 07:24:24;;;;;;;2.13;1.53;;;;;18.60;101691.00;;;;4939485;28;20233;-70
2022/07/02 07:27:10;;;;;;;1.70;1.60;;;;;18.70;101686.00;;;;4934812;28;20256;-70
2022/07/02 07:29:58;;;;;;;5.33;2.17;;;;;18.90;101686.00;;;;4937122;28;20719;-70
2022/07/02 07:32:44;;;;;;;4.47;1.90;;;;;19.10;101692.00;;;;4947331;28;20598;-70
2022/07/02 07:35:31;;;;;;;6.93;1.97;;;;;19.10;101686.00;;;;4937348;28;20304;-69
2022/07/02 07:38:17;;;;;;;5.97;1.60;;;;;19.10;101680.00;;;;4942339;28;20240;-71
2022/07/02 07:41:04;;;;;;;10.77;2.10;;;;;19.10;101680.00;;;;4942907;28;20227;-71
2022/07/02 07:43:52;;;;;;;1.87;1.67;;;;;19.20;101679.00;;;;4946618;28;20329;-68
2022/07/02 07:46:39;;;;;;;5.13;1.50;;;;;19.40;101682.00;;;;4943570;28;20355;-70
2022/07/02 07:49:26;;;;;;;1.97;1.50;;;;;19.40;101688.00;;;;4943744;28;20319;-70
2022/07/02 07:52:12;;;;;;;2.43;1.40;;;;;19.50;101694.00;;;;4946586;28;20368;-70
2022/07/02 07:54:59;;;;;;;5.50;1.87;;;;;19.50;101679.00;;;;4945132;28;20223;-71
2022/07/02 07:57:51;;;;;;;3.83;2.00;;;;;19.60;101682.00;;;;4944071;28;20228;-71
2022/07/02 08:00:38;;;;;;;15.47;7.97;;;;;19.70;101685.00;;;;4937561;28;20729;-71
2022/07/02 08:03:25;;;;;;;3.50;1.97;;;;;19.80;101678.00;;;;4945958;28;20240;-70
2022/07/02 08:06:11;;;;;;;2.27;1.50;;;;;20.10;101685.00;;;;4934559;28;20244;-69
2022/07/02 08:08:59;;;;;;;1.50;1.40;;;;;20.20;101691.00;;;;4936265;28;20231;-70
2022/07/02 08:11:45;;;;;;;2.83;1.70;;;;;20.30;101689.00;;;;4940989;28;20244;-70
2022/07/02 08:14:32;;;;;;;2.60;1.57;;;;;20.50;101686.00;;;;4943961;28;20228;-70
2022/07/02 08:17:18;;;;;;;1.53;1.37;;;;;20.70;101695.00;;;;4941230;28;20728;-71
2022/07/02 08:20:07;;;;;;;1.80;1.30;;;;;20.80;101694.00;;;;4939749;28;20235;-71
2022/07/02 08:22:54;;;;;;;2.60;1.50;;;;;20.80;101689.00;;;;4940947;28;20236;-70
2022/07/02 08:25:40;;;;;;;1.30;1.20;;;;;21.00;101693.00;;;;4944407;28;20295;-71
2022/07/02 08:28:26;;;;;;;1.40;1.20;;;;;21.30;101676.00;;;;4940222;28;20860;-71
2022/07/02 08:31:12;;;;;;;21.17;12.03;;;;;21.50;101693.00;;;;4941599;28;20306;-73
2022/07/02 08:33:58;;;;;;;7.37;3.40;;;;;21.60;101680.00;;;;4933376;28;20299;-71
2022/07/02 08:36:46;;;;;;;2.20;1.70;;;;;22.00;101673.00;;;;4943374;28;20742;-70
2022/07/02 08:39:32;;;;;;;1.87;1.20;;;;;21.90;101674.00;;;;4946291;28;20305;-70
2022/07/02 08:42:25;;;;;;;1.43;1.10;;;;;21.90;101672.00;;;;4941104;28;20279;-70
2022/07/02 08:45:13;;;;;;;2.00;1.60;;;;;22.00;101686.00;;;;4938385;28;20233;-68
2022/07/02 08:47:59;;;;;;;1.30;1.20;;;;;21.50;101679.00;;;;4932505;28;20231;-70
2022/07/02 08:50:47;;;;;;;1.20;1.10;;;;;21.30;101674.00;;;;4936119;28;20290;-67
2022/07/02 08:53:34;;;;;;;3.43;1.30;;;;;21.60;101681.00;;;;4938307;28;20291;-67
2022/07/02 08:56:22;;;;;;;2.40;1.20;;;;;21.80;101668.00;;;;4930927;29;20242;-68
2022/07/02 08:59:08;;;;;;;2.60;1.13;;;;;21.70;101678.00;;;;4936602;28;20241;-68
2022/07/02 09:01:55;;;;;;;4.03;1.37;;;;;21.70;101665.00;;;;4944972;28;20305;-71
2022/07/02 09:04:46;;;;;;;1.63;1.30;;;;;22.20;101668.00;;;;4945652;28;21058;-71
2022/07/02 09:07:35;;;;;;;1.20;1.10;;;;;22.50;101658.00;;;;4942567;28;20609;-75
2022/07/02 09:10:24;;;;;;;3.07;1.30;;;;;22.90;101669.00;;;;4941602;28;21438;-69
2022/07/02 09:13:13;;;;;;;1.00;0.90;;;;;23.00;101653.00;;;;4940609;28;20231;-72
2022/07/02 09:15:59;;;;;;;1.30;0.90;;;;;23.30;101658.00;;;;4946155;28;20234;-73
2022/07/02 09:18:46;;;;;;;1.53;1.00;;;;;23.70;101653.00;;;;4949470;28;20254;-69
2022/07/02 09:21:41;;;;;;;11.67;6.57;;;;;23.80;101658.00;;;;4947911;28;20243;-71
2022/07/02 09:24:30;;;;;;;5.53;2.17;;;;;23.70;101667.00;;;;4948034;28;20712;-75
2022/07/02 09:27:18;;;;;;;3.30;0.87;;;;;23.80;101672.00;;;;4944585;28;20238;-74
2022/07/02 09:30:06;;;;;;;2.53;1.00;;;;;23.60;101649.00;;;;4938152;28;20292;-71
2022/07/02 09:33:28;;;;;;;1.00;0.90;;;;;23.40;101664.00;;;;4937859;29;20730;-73
2022/07/02 09:36:02;;;;;;;2.17;0.97;;;;;23.20;101665.00;;;;4938500;28;20232;-72
2022/07/02 09:38:50;;;;;;;1.17;1.07;;;;;23.10;101655.00;;;;4940394;28;20750;-72
2022/07/02 09:41:43;;;;;;;1.43;1.00;;;;;23.00;101656.00;;;;4938093;28;20625;-71
2022/07/02 09:44:31;;;;;;;0.90;0.90;;;;;23.30;101645.00;;;;4940708;28;20231;-71
2022/07/02 09:47:17;;;;;;;1.23;0.90;;;;;23.30;101650.00;;;;4945314;28;20286;-71
2022/07/02 09:50:05;;;;;;;1.30;1.10;;;;;23.10;101651.00;;;;4933359;29;20311;-69
2022/07/02 09:52:53;;;;;;;3.67;1.10;;;;;22.80;101650.00;;;;4941725;28;20247;-69
2022/07/02 09:55:40;;;;;;;3.30;1.00;;;;;22.80;101651.00;;;;4948614;28;20242;-73
2022/07/02 09:58:28;;;;;;;2.93;1.10;;;;;23.00;101643.00;;;;4949101;28;20239;-74
2022/07/02 10:01:19;;;;;;;0.93;0.90;;;;;23.30;101658.00;;;;4942843;28;20263;-72
2022/07/02 10:04:05;;;;;;;2.13;1.40;;;;;23.20;101644.00;;;;4940572;28;20272;-67
2022/07/02 10:06:51;;;;;;;0.90;0.90;;;;;23.40;101645.00;;;;4949105;28;20765;-69
2022/07/02 10:09:39;;;;;;;0.97;0.97;;;;;23.20;101641.00;;;;4943332;28;20229;-70
2022/07/02 10:12:25;;;;;;;1.33;1.20;;;;;23.30;101644.00;;;;4939726;28;20236;-70
2022/07/02 10:15:14;;;;;;;1.73;0.90;;;;;23.80;101646.00;;;;4941421;28;20329;-70
2022/07/02 10:18:02;;;;;;;1.80;1.00;;;;;24.10;101655.00;;;;4935833;28;20243;-70
2022/07/02 10:20:49;;;;;;;2.63;1.13;;;;;24.20;101644.00;;;;4931557;29;20722;-69
2022/07/02 10:23:35;;;;;;;1.30;1.07;;;;;24.50;101645.00;;;;4933441;28;20645;-70
2022/07/02 10:26:23;;;;;;;1.63;0.80;;;;;24.80;101637.00;;;;4939499;28;20232;-71
2022/07/02 10:29:10;;;;;;;1.73;1.07;;;;;24.90;101637.00;;;;4944681;28;20247;-70
2022/07/02 10:32:07;;;;;;;1.30;0.70;;;;;25.10;101629.00;;;;4946784;28;20236;-70
2022/07/02 10:35:07;;;;;;;1.17;0.90;;;;;25.40;101623.00;;;;4939199;28;21503;-71
2022/07/02 10:37:58;;;;;;;0.90;0.77;;;;;25.70;101637.00;;;;4939512;28;20247;-70
2022/07/02 10:40:48;;;;;;;3.97;2.97;;;;;25.50;101624.00;;;;4933154;28;20233;-71
2022/07/02 10:43:35;;;;;;;2.93;1.70;;;;;25.50;101624.00;;;;4932598;29;20322;-71
2022/07/02 10:46:23;;;;;;;0.70;0.70;;;;;25.80;101614.00;;;;4934171;28;20244;-72
2022/07/02 10:49:10;;;;;;;1.40;0.90;;;;;26.00;101620.00;;;;4939478;28;20237;-71
2022/07/02 10:51:58;;;;;;;1.43;0.90;;;;;26.10;101598.00;;;;4941062;28;20253;-70
2022/07/02 10:54:45;;;;;;;1.33;0.90;;;;;26.00;101593.00;;;;4944358;28;20244;-71
2022/07/02 10:57:32;;;;;;;5.17;0.87;;;;;26.10;101593.00;;;;4937629;28;20281;-69
2022/07/02 11:00:27;;;;;;;0.73;0.73;;;;;25.90;101602.00;;;;4942824;28;20240;-74
2022/07/02 11:03:15;;;;;;;0.80;0.80;;;;;25.90;101599.00;;;;4935646;28;20562;-72
2022/07/02 11:06:21;;;;;;;2.20;0.80;;;;;25.90;101601.00;;;;4946914;28;20291;-72
2022/07/02 11:09:09;;;;;;;3.17;1.20;;;;;26.00;101597.00;;;;4946391;28;20292;-72
2022/07/02 11:12:00;;;;;;;1.87;1.00;;;;;25.90;101599.00;;;;4948055;28;20240;-72
2022/07/02 11:14:55;;;;;;;0.90;0.90;;;;;26.20;101584.00;;;;4946273;28;20634;-71
2022/07/02 11:18:04;;;;;;;2.05;0.90;;;;;26.30;101586.00;;;;4938961;28;20244;-72
2022/07/02 11:20:51;;;;;;;1.20;0.80;;;;;26.10;101590.00;;;;4940053;28;20364;-70
2022/07/02 11:23:39;;;;;;;0.90;0.73;;;;;26.30;101583.00;;;;4946995;28;20236;-69
2022/07/02 11:26:28;;;;;;;1.17;0.90;;;;;26.70;101578.00;;;;4944984;28;20239;-70
2022/07/02 11:29:15;;;;;;;0.90;0.83;;;;;26.80;101576.00;;;;4941948;28;20722;-69
2022/07/02 11:32:02;;;;;;;0.80;0.80;;;;;27.10;101584.00;;;;4945319;28;20236;-72
2022/07/02 11:34:59;;;;;;;1.98;0.82;;;;;27.20;101580.00;;;;4946201;28;20255;-71
2022/07/02 11:37:46;;;;;;;4.47;0.82;;;;;27.10;101571.00;;;;4939973;28;20269;-71
2022/07/02 11:40:32;;;;;;;0.70;0.70;;;;;27.20;101568.00;;;;4934676;28;20257;-68
2022/07/02 11:43:20;;;;;;;0.80;0.80;;;;;27.40;101562.00;;;;4930191;28;20232;-69
2022/07/02 11:46:07;;;;;;;2.10;0.80;;;;;27.30;101562.00;;;;4928376;29;20673;-68
2022/07/02 11:48:55;;;;;;;1.23;1.00;;;;;27.40;101566.00;;;;4928372;29;20251;-70
2022/07/02 11:51:41;;;;;;;1.38;0.88;;;;;27.50;101559.00;;;;4930964;28;20231;-69
2022/07/02 11:54:28;;;;;;;1.27;0.90;;;;;27.10;101563.00;;;;4931531;28;20241;-71
2022/07/02 11:57:14;;;;;;;0.93;0.93;;;;;26.50;101572.00;;;;4934308;28;20232;-69
2022/07/02 12:00:02;;;;;;;5.57;1.25;;;;;26.10;101565.00;;;;4945168;28;20243;-70
2022/07/02 12:02:48;;;;;;;0.90;0.80;;;;;26.40;101564.00;;;;4942589;28;20232;-70
2022/07/02 12:05:36;;;;;;;1.02;0.80;;;;;26.60;101560.00;;;;4939905;28;21472;-70
2022/07/02 12:08:22;;;;;;;0.70;0.70;;;;;27.10;101553.00;;;;4932493;28;20602;-68
2022/07/02 12:11:13;;;;;;;0.85;0.85;;;;;27.60;101552.00;;;;4944821;28;20240;-71
2022/07/02 12:13:59;;;;;;;1.60;0.90;;;;;27.80;101560.00;;;;4938822;28;20612;-68
2022/07/02 12:16:47;;;;;;;1.95;0.80;;;;;27.80;101537.00;;;;4943684;28;20236;-69
2022/07/02 12:19:35;;;;;;;1.02;0.98;;;;;27.60;101551.00;;;;4942021;28;20232;-69
2022/07/02 12:22:24;;;;;;;1.35;0.98;;;;;27.80;101556.00;;;;4940371;28;20267;-70
2022/07/02 12:25:10;;;;;;;4.55;2.67;;;;;27.70;101550.00;;;;4946539;28;20364;-70
2022/07/02 12:27:57;;;;;;;1.00;0.90;;;;;27.90;101552.00;;;;4945495;28;20232;-71
2022/07/02 12:30:52;;;;;;;1.52;0.70;;;;;28.10;101557.00;;;;4945832;28;20615;-68
2022/07/02 12:33:40;;;;;;;0.70;0.70;;;;;28.00;101552.00;;;;4942507;28;20239;-69
2022/07/02 12:36:26;;;;;;;1.08;0.90;;;;;28.20;101544.00;;;;4946484;28;20244;-70
2022/07/02 12:39:12;;;;;;;1.17;0.90;;;;;28.30;101536.00;;;;4946810;28;20350;-69
2022/07/02 12:41:58;;;;;;;1.85;0.90;;;;;28.70;101540.00;;;;4945473;28;20292;-68
2022/07/02 12:44:52;;;;;;;2.53;0.75;;;;;28.70;101533.00;;;;4946212;28;20268;-67
2022/07/02 12:47:40;;;;;;;1.85;0.90;;;;;29.00;101524.00;;;;4942063;28;20239;-70
2022/07/02 12:50:30;;;;;;;4.40;0.90;;;;;28.70;101525.00;;;;4948228;28;20240;-71
2022/07/02 12:53:18;;;;;;;1.13;1.02;;;;;28.60;101516.00;;;;4948629;28;20235;-64
2022/07/02 12:56:06;;;;;;;1.40;1.00;;;;;28.30;101516.00;;;;4948559;28;20388;-72
2022/07/02 12:58:52;;;;;;;4.55;0.88;;;;;28.80;101514.00;;;;4948946;28;20232;-69
2022/07/02 13:01:39;;;;;;;5.05;1.05;;;;;28.90;101497.00;;;;4946151;28;20804;-70
2022/07/02 13:04:26;;;;;;;2.67;0.90;;;;;29.30;101506.00;;;;4943438;28;20263;-71
2022/07/02 13:07:15;;;;;;;1.65;0.80;;;;;29.60;101504.00;;;;4944034;28;20263;-72
2022/07/02 13:10:02;;;;;;;2.42;0.80;;;;;29.50;101493.00;;;;4947541;28;20251;-70
2022/07/02 13:12:48;;;;;;;2.00;1.17;;;;;29.80;101498.00;;;;4940867;28;20236;-69
2022/07/02 13:15:35;;;;;;;0.68;0.68;;;;;29.80;101496.00;;;;4937152;28;20380;-70
2022/07/02 13:18:21;;;;;;;0.98;0.90;;;;;29.90;101506.00;;;;4940521;28;20228;-71
2022/07/02 13:21:07;;;;;;;4.78;1.00;;;;;29.50;101501.00;;;;4942647;28;20891;-72
2022/07/02 13:23:55;;;;;;;0.98;0.90;;;;;30.00;101499.00;;;;4950172;28;20240;-72
2022/07/02 13:26:41;;;;;;;1.83;0.93;;;;;30.20;101501.00;;;;4943407;28;20333;-71
2022/07/02 13:29:28;;;;;;;0.90;0.90;;;;;30.60;101507.00;;;;4942938;28;20748;-68
2022/07/02 13:32:14;;;;;;;4.70;1.00;;;;;30.50;101512.00;;;;4949796;28;20296;-71
2022/07/02 13:35:00;;;;;;;0.80;0.80;;;;;30.70;101494.00;;;;4948525;28;20232;-71
2022/07/02 13:37:46;;;;;;;1.10;1.00;;;;;30.30;101490.00;;;;4950429;28;20239;-69
2022/07/02 13:40:34;;;;;;;0.80;0.80;;;;;30.00;101478.00;;;;4942054;28;20232;-70
2022/07/02 13:43:20;;;;;;;5.57;0.85;;;;;30.10;101486.00;;;;4943289;28;20252;-68
2022/07/02 13:46:06;;;;;;;2.15;1.20;;;;;29.60;101476.00;;;;4947132;28;20744;-72
2022/07/02 13:48:52;;;;;;;3.40;1.00;;;;;29.50;101473.00;;;;4943856;28;20728;-71
2022/07/02 13:51:38;;;;;;;0.90;0.90;;;;;29.90;101470.00;;;;4944079;28;20228;-70